createdAt,value
2018-01-15T04:32:42.588Z,21.33
2018-01-15T04:35:10.251Z,23.02
2018-01-15T04:37:37.885Z,20.35
2018-01-15T04:40:05.576Z,20.90
2018-01-15T04:42:33.208Z,22.42
2018-01-15T04:45:00.865Z,26.27
2018-01-15T04:47:28.563Z,22.83
2018-01-15T04:49:56.972Z,21.10
2018-01-15T04:52:24.641Z,20.67
2018-01-15T04:54:52.329Z,25.67
2018-01-15T04:57:20.016Z,33.42
2018-01-15T04:59:47.647Z,50.85
2018-01-15T05:02:15.307Z,85.35
2018-01-15T05:04:42.988Z,95.53
2018-01-15T05:07:10.636Z,138.48
2018-01-15T05:09:38.299Z,127.28
2018-01-15T05:12:05.988Z,79.62
2018-01-15T05:14:34.416Z,59.38
2018-01-15T05:17:02.052Z,59.20
2018-01-15T05:19:29.729Z,47.40
2018-01-15T05:21:57.387Z,40.42
2018-01-15T05:24:25.172Z,42.13
2018-01-15T05:26:52.803Z,34.83
2018-01-15T05:29:20.457Z,32.08
2018-01-15T05:31:48.139Z,31.60
2018-01-15T05:34:15.804Z,29.42
2018-01-15T05:36:43.439Z,23.48
2018-01-15T05:39:11.095Z,32.80
2018-01-15T05:41:38.828Z,24.00
2018-01-15T05:44:06.575Z,30.62
2018-01-15T05:46:34.236Z,28.85
2018-01-15T05:49:01.944Z,29.87
2018-01-15T05:51:29.601Z,35.20
2018-01-15T05:53:57.232Z,34.15
2018-01-15T05:56:24.935Z,43.90
2018-01-15T05:58:52.596Z,50.83
2018-01-15T06:01:20.259Z,46.37
2018-01-15T06:03:47.992Z,42.50
2018-01-15T06:06:16.384Z,43.10
2018-01-15T06:08:44.064Z,40.30
2018-01-15T06:11:11.716Z,42.70
2018-01-15T06:13:39.348Z,36.03
2018-01-15T06:16:07.793Z,41.15
2018-01-15T06:18:35.457Z,60.05
2018-01-15T06:21:03.092Z,48.25
2018-01-15T06:23:30.761Z,57.53
2018-01-15T06:25:58.415Z,73.12
2018-01-15T06:28:26.120Z,59.47
2018-01-15T06:30:53.804Z,50.65
2018-01-15T06:33:22.223Z,38.42
2018-01-15T06:35:49.880Z,41.97
2018-01-15T06:38:17.583Z,44.85
2018-01-15T06:40:45.995Z,51.65
2018-01-15T06:43:13.659Z,43.47
2018-01-15T06:45:41.346Z,40.08
2018-01-15T06:48:08.980Z,44.50
2018-01-15T06:50:36.634Z,38.80
2018-01-15T06:53:05.096Z,31.42
2018-01-15T06:55:33.541Z,36.78
2018-01-15T06:58:01.199Z,30.90
2018-01-15T07:00:28.855Z,37.80
2018-01-15T07:02:56.621Z,42.53
2018-01-15T07:05:24.265Z,43.55
2018-01-15T07:07:51.893Z,45.78
2018-01-15T07:10:19.588Z,40.92
2018-01-15T07:12:47.223Z,36.33
2018-01-15T07:15:14.858Z,26.90
2018-01-15T07:17:43.316Z,29.30
2018-01-15T07:20:10.984Z,32.13
2018-01-15T07:22:38.626Z,25.25
2018-01-15T07:25:06.317Z,25.80
2018-01-15T07:27:34.735Z,29.48
2018-01-15T07:30:02.560Z,24.55
2018-01-15T07:32:30.984Z,27.02
2018-01-15T07:34:58.615Z,25.48
2018-01-15T07:37:26.249Z,23.98
2018-01-15T07:39:54.200Z,19.77
2018-01-15T07:42:21.860Z,22.05
2018-01-15T07:44:49.535Z,28.75
2018-01-15T07:47:17.187Z,25.48
2018-01-15T07:49:44.823Z,22.52
2018-01-15T07:52:12.627Z,24.85
2018-01-15T07:54:41.023Z,24.10
2018-01-15T07:57:08.672Z,25.33
2018-01-15T07:59:37.120Z,25.10
2018-01-15T08:02:04.780Z,28.62
2018-01-15T08:04:32.463Z,25.02
2018-01-15T08:07:00.894Z,29.55
2018-01-15T08:09:28.639Z,25.12
2018-01-15T08:11:56.283Z,34.67
2018-01-15T08:14:23.916Z,25.48
2018-01-15T08:16:51.591Z,23.65
2018-01-15T08:19:20.071Z,26.90
2018-01-15T08:21:48.468Z,29.63
2018-01-15T08:24:16.108Z,22.20
2018-01-15T08:26:44.556Z,20.25
2018-01-15T08:29:12.208Z,23.25
2018-01-15T08:31:39.843Z,19.25
2018-01-15T08:34:07.529Z,24.20
2018-01-15T08:36:35.160Z,16.95
2018-01-15T08:39:02.792Z,20.58
2018-01-15T08:41:31.204Z,16.90
2018-01-15T08:43:58.835Z,19.58
2018-01-15T08:46:27.339Z,19.83
2018-01-15T08:48:54.987Z,20.25
2018-01-15T08:51:22.632Z,17.83
2018-01-15T08:53:51.052Z,16.80
2018-01-15T08:56:20.870Z,17.20
2018-01-15T08:58:51.964Z,13.95
2018-01-15T09:01:20.564Z,14.52
2018-01-15T09:03:48.212Z,17.60
2018-01-15T09:06:15.884Z,16.37
2018-01-15T09:08:43.512Z,18.67
2018-01-15T09:11:11.908Z,16.62
2018-01-15T09:13:40.363Z,12.88
2018-01-15T09:16:08.012Z,13.95
2018-01-15T09:18:35.666Z,15.65
2018-01-15T09:21:03.357Z,15.70
2018-01-15T09:23:31.772Z,14.73
2018-01-15T09:25:59.415Z,13.95
2018-01-15T09:28:27.091Z,16.50
2018-01-15T09:30:54.739Z,15.63
2018-01-15T09:33:22.465Z,18.65
2018-01-15T09:35:50.124Z,14.48
2018-01-15T09:38:17.756Z,15.30
2018-01-15T09:40:45.455Z,17.25
2018-01-15T09:43:13.864Z,18.42
2018-01-15T09:45:41.520Z,17.67
2018-01-15T09:48:09.184Z,17.17
2018-01-15T09:50:36.817Z,15.43
2018-01-15T09:53:05.251Z,14.30
2018-01-15T09:55:32.902Z,12.80
2018-01-15T09:58:00.573Z,17.00
2018-01-15T10:00:28.244Z,16.12
2018-01-15T10:02:55.892Z,15.30
2018-01-15T10:05:23.519Z,18.52
2018-01-15T10:07:51.182Z,18.62
2018-01-15T10:10:18.832Z,15.43
2018-01-15T10:12:46.516Z,17.92
2018-01-15T10:15:14.202Z,17.10
2018-01-15T10:17:41.905Z,17.37
2018-01-15T10:20:10.364Z,17.17
2018-01-15T10:22:37.999Z,17.08
2018-01-15T10:25:06.392Z,15.65
2018-01-15T10:27:34.045Z,20.42
2018-01-15T10:30:01.669Z,16.98
2018-01-15T10:32:29.352Z,16.80
2018-01-15T10:34:57.003Z,15.52
2018-01-15T10:37:24.636Z,16.45
2018-01-15T10:39:52.340Z,17.37
2018-01-15T10:42:19.969Z,16.62
2018-01-15T10:44:47.597Z,17.02
2018-01-15T10:47:16.059Z,14.52
2018-01-15T10:49:43.711Z,14.65
2018-01-15T10:52:11.364Z,16.27
2018-01-15T10:54:39.035Z,15.68
2018-01-15T10:57:06.692Z,19.73
2018-01-15T10:59:34.388Z,14.75
2018-01-15T11:02:02.803Z,17.45
2018-01-15T11:04:30.432Z,12.90
2018-01-15T11:06:58.871Z,14.13
2018-01-15T11:09:27.323Z,22.35
2018-01-15T11:11:54.991Z,17.17
2018-01-15T11:14:22.675Z,15.40
2018-01-15T11:16:50.376Z,14.55
2018-01-15T11:19:18.035Z,12.68
2018-01-15T11:21:45.740Z,13.68
2018-01-15T11:24:13.382Z,15.18
2018-01-15T11:26:41.035Z,16.60
2018-01-15T11:29:08.725Z,12.20
2018-01-15T11:31:36.352Z,11.80
2018-01-15T11:34:04.892Z,12.45
2018-01-15T11:36:32.587Z,12.95
2018-01-15T11:39:00.236Z,13.45
2018-01-15T11:41:28.656Z,10.10
2018-01-15T11:43:56.329Z,10.57
2018-01-15T11:46:23.956Z,11.82
2018-01-15T11:48:51.644Z,12.25
2018-01-15T11:51:19.272Z,10.63
2018-01-15T11:53:46.916Z,11.55
2018-01-15T11:56:15.380Z,12.20
2018-01-15T11:58:43.776Z,12.90
2018-01-15T12:01:12.164Z,10.13
2018-01-15T12:03:39.828Z,13.23
2018-01-15T12:06:07.464Z,12.90
2018-01-15T12:08:35.852Z,9.38
2018-01-15T12:11:04.287Z,12.65
2018-01-15T12:13:31.920Z,10.93
2018-01-15T12:15:59.621Z,11.63
2018-01-15T12:18:27.272Z,8.95
2018-01-15T12:20:54.927Z,11.63
2018-01-15T12:23:22.626Z,11.50
2018-01-15T12:25:51.024Z,14.18
2018-01-15T12:28:18.702Z,12.37
2018-01-15T12:30:46.351Z,14.80
2018-01-15T12:33:13.995Z,10.40
2018-01-15T12:35:41.651Z,18.42
2018-01-15T12:38:10.096Z,12.60
2018-01-15T12:40:37.740Z,11.25
2018-01-15T12:43:05.392Z,10.55
2018-01-15T12:45:33.092Z,14.10
2018-01-15T12:48:00.715Z,13.52
2018-01-15T12:50:28.344Z,15.88
2018-01-15T12:52:56.033Z,10.45
2018-01-15T12:55:23.681Z,11.55
2018-01-15T12:57:51.459Z,12.88
2018-01-15T13:00:19.188Z,11.10
2018-01-15T13:02:46.843Z,21.35
2018-01-15T13:05:14.474Z,11.85
2018-01-15T13:07:54.041Z,11.65
2018-01-15T13:10:22.455Z,12.77
2018-01-15T13:12:50.085Z,11.98
2018-01-15T13:15:17.741Z,12.85
2018-01-15T13:17:45.412Z,12.10
2018-01-15T13:20:13.041Z,12.80
2018-01-15T13:22:41.436Z,12.25
2018-01-15T13:25:09.889Z,14.77
2018-01-15T13:27:37.525Z,10.75
2018-01-15T13:30:05.749Z,9.90
2018-01-15T13:32:33.432Z,11.27
2018-01-15T13:35:01.080Z,12.10
2018-01-15T13:37:28.709Z,11.25
2018-01-15T13:39:56.412Z,10.73
2018-01-15T13:42:24.069Z,13.68
2018-01-15T13:44:51.700Z,11.68
2018-01-15T13:47:20.164Z,11.65
2018-01-15T13:49:47.812Z,12.63
2018-01-15T13:52:15.453Z,14.68
2018-01-15T13:54:43.159Z,14.70
2018-01-15T13:57:11.576Z,16.27
2018-01-15T13:59:39.228Z,10.27
2018-01-15T14:02:06.903Z,12.57
2018-01-15T14:04:34.524Z,11.38
2018-01-15T14:07:02.935Z,13.20
2018-01-15T14:09:30.630Z,11.63
2018-01-15T14:11:58.273Z,10.65
2018-01-15T14:14:25.901Z,11.85
2018-01-15T14:16:53.576Z,11.10
2018-01-15T14:19:21.227Z,10.65
2018-01-15T14:21:48.880Z,13.35
2018-01-15T14:24:16.560Z,10.32
2018-01-15T14:26:44.200Z,12.40
2018-01-15T14:29:11.832Z,13.85
2018-01-15T14:31:39.607Z,10.48
2018-01-15T14:34:08.005Z,10.75
2018-01-15T14:36:35.656Z,10.48
2018-01-15T14:39:03.357Z,13.43
2018-01-15T14:41:30.984Z,11.23
2018-01-15T14:43:58.608Z,12.02
2018-01-15T14:46:27.067Z,11.98
2018-01-15T14:48:54.700Z,12.27
2018-01-15T14:51:22.328Z,11.10
2018-01-15T14:53:50.768Z,10.70
2018-01-15T14:56:18.396Z,13.60
2018-01-15T14:58:46.040Z,13.07
2018-01-15T15:01:13.726Z,13.68
2018-01-15T15:03:41.352Z,8.73
2018-01-15T15:06:09.740Z,11.63
2018-01-15T15:08:37.388Z,11.45
2018-01-15T15:11:05.803Z,12.63
2018-01-15T15:13:33.489Z,14.95
2018-01-15T15:16:01.112Z,12.15
2018-01-15T15:18:28.760Z,11.00
2018-01-15T15:20:56.435Z,11.75
2018-01-15T15:23:24.060Z,18.42
2018-01-15T15:25:52.452Z,13.43
2018-01-15T15:28:20.152Z,14.38
2018-01-15T15:30:47.780Z,14.32
2018-01-15T15:33:15.431Z,11.52
2018-01-15T15:35:43.116Z,9.93
2018-01-15T15:38:10.744Z,13.57
2018-01-15T15:40:39.308Z,43.35
2018-01-15T15:43:08.062Z,64.25
2018-01-15T15:45:35.823Z,20.67
2018-01-15T15:48:03.504Z,15.65
2018-01-15T15:50:31.349Z,12.88
2018-01-15T15:52:59.048Z,15.38
2018-01-15T15:55:27.597Z,26.27
2018-01-15T15:57:55.457Z,19.58
2018-01-15T16:00:23.138Z,20.23
2018-01-15T16:02:50.879Z,17.85
2018-01-15T16:05:18.643Z,16.60
2018-01-15T16:07:46.412Z,14.45
2018-01-15T16:10:14.168Z,15.90
2018-01-15T16:12:41.931Z,11.05
2018-01-15T16:15:09.695Z,21.40
2018-01-15T16:17:37.868Z,15.00
2018-01-15T16:20:05.836Z,72.40
2018-01-15T16:22:33.495Z,49.17
2018-01-15T16:25:01.258Z,18.60
2018-01-15T16:27:29.021Z,15.63
2018-01-15T16:29:57.520Z,17.25
2018-01-15T16:32:25.180Z,14.25
2018-01-15T16:34:52.840Z,16.17
2018-01-15T16:37:20.690Z,22.00
2018-01-15T16:39:48.449Z,13.10
2018-01-15T16:42:16.213Z,13.90
2018-01-15T16:44:44.308Z,13.45
2018-01-15T16:47:12.048Z,15.93
2018-01-15T16:49:39.809Z,14.85
2018-01-15T16:52:07.674Z,21.30
2018-01-15T16:54:35.437Z,13.90
2018-01-15T16:57:03.116Z,14.85
2018-01-15T16:59:30.800Z,16.30
2018-01-15T17:01:59.342Z,15.65
2018-01-15T17:04:27.102Z,15.85
2018-01-15T17:06:54.866Z,14.55
2018-01-15T17:09:22.628Z,17.17
2018-01-15T17:11:50.391Z,16.70
2018-01-15T17:14:18.265Z,25.55
2018-01-15T17:16:46.019Z,16.25
2018-01-15T17:19:13.782Z,18.83
2018-01-15T17:21:41.647Z,20.27
2018-01-15T17:24:09.411Z,18.30
2018-01-15T17:26:37.174Z,18.45
2018-01-15T17:29:05.038Z,36.78
2018-01-15T17:31:32.802Z,27.45
2018-01-15T17:34:00.566Z,18.12
2018-01-15T17:36:28.432Z,18.62
2018-01-15T17:38:56.196Z,21.67
2018-01-15T17:41:23.957Z,34.78
2018-01-15T17:43:51.944Z,42.40
2018-01-15T17:46:20.116Z,42.28
2018-01-15T17:48:48.166Z,23.50
2018-01-15T17:51:15.793Z,21.02
2018-01-15T17:53:43.589Z,21.25
2018-01-15T17:56:11.454Z,20.17
2018-01-15T17:58:39.221Z,25.65
2018-01-15T18:01:06.897Z,45.05
2018-01-15T18:03:34.640Z,18.95
2018-01-15T18:06:02.404Z,22.48
2018-01-15T18:08:30.038Z,20.95
2018-01-15T18:10:57.834Z,17.98
2018-01-15T18:13:25.456Z,18.80
2018-01-15T18:15:53.254Z,20.95
2018-01-15T18:18:21.115Z,27.62
2018-01-15T18:20:48.878Z,22.00
2018-01-15T18:23:16.642Z,20.60
2018-01-15T18:25:44.406Z,16.90
2018-01-15T18:28:12.099Z,22.92
2018-01-15T18:30:40.237Z,19.73
2018-01-15T18:33:08.019Z,18.08
2018-01-15T18:35:36.585Z,22.42
2018-01-15T18:38:04.447Z,19.12
2018-01-15T18:40:32.127Z,19.37
2018-01-15T18:42:59.872Z,23.50
2018-01-15T18:45:27.634Z,19.08
2018-01-15T18:47:55.397Z,24.95
2018-01-15T18:50:23.159Z,37.60
2018-01-15T18:52:51.673Z,28.15
2018-01-15T18:55:19.504Z,22.73
2018-01-15T18:57:47.267Z,27.40
2018-01-15T19:00:15.132Z,28.92
2018-01-15T19:02:42.812Z,25.62
2018-01-15T19:05:10.556Z,28.75
2018-01-15T19:07:38.421Z,27.45
2018-01-15T19:10:06.184Z,24.30
2018-01-15T19:12:33.947Z,23.67
2018-01-15T19:15:01.713Z,20.95
2018-01-15T19:17:29.473Z,19.42
2018-01-15T19:19:57.337Z,23.05
2018-01-15T19:22:25.101Z,21.25
2018-01-15T19:24:52.864Z,25.77
2018-01-15T19:27:20.626Z,23.83
2018-01-15T19:29:48.394Z,23.05
2018-01-15T19:32:16.096Z,21.50
2018-01-15T19:34:49.240Z,19.95
2018-01-15T19:40:15.680Z,19.67
2018-01-15T19:42:43.624Z,22.00
2018-01-15T19:45:17.156Z,17.05
2018-01-15T19:47:50.652Z,23.52
2018-01-15T19:50:25.177Z,22.10
2018-01-15T19:56:00.228Z,52.05
2018-01-15T19:58:33.879Z,30.52
2018-01-15T20:01:08.144Z,20.45
2018-01-15T20:03:41.732Z,21.65
2018-01-15T20:06:15.853Z,23.00
2018-01-15T20:08:50.275Z,20.05
2018-01-15T20:11:18.744Z,24.50
2018-01-15T20:13:46.516Z,19.65
2018-01-15T20:16:14.485Z,23.00
2018-01-15T20:18:42.246Z,22.98
2018-01-15T20:21:10.152Z,14.00
2018-01-15T20:23:38.612Z,20.85
2018-01-15T20:26:06.456Z,17.20
2018-01-15T20:28:34.137Z,19.15
2018-01-15T20:31:01.879Z,19.48
2018-01-15T20:33:30.491Z,20.40
2018-01-15T20:35:58.224Z,17.30
2018-01-15T20:38:25.988Z,16.10
2018-01-15T20:40:53.751Z,20.48
2018-01-15T20:43:21.432Z,21.35
2018-01-15T20:45:49.088Z,14.15
2018-01-15T20:48:16.759Z,19.45
2018-01-15T20:50:44.403Z,16.27
2018-01-15T20:53:12.155Z,17.67
2018-01-15T20:55:39.918Z,22.10
2018-01-15T20:58:07.681Z,17.67
2018-01-15T21:00:39.642Z,16.92
2018-01-15T21:03:07.405Z,17.42
2018-01-15T21:05:35.168Z,19.23
2018-01-15T21:08:02.852Z,22.75
2018-01-15T21:10:30.694Z,19.52
2018-01-15T21:12:58.466Z,21.87
2018-01-15T21:15:26.221Z,17.02
2018-01-15T21:17:54.085Z,18.40
2018-01-15T21:20:21.849Z,19.85
2018-01-15T21:22:49.615Z,16.48
2018-01-15T21:25:17.477Z,22.83
2018-01-15T21:27:45.239Z,22.25
2018-01-15T21:30:13.001Z,17.95
2018-01-15T21:32:40.702Z,16.45
2018-01-15T21:35:09.244Z,21.65
2018-01-15T21:37:37.008Z,20.77
2018-01-15T21:40:04.770Z,20.25
2018-01-15T21:42:32.533Z,18.05
2018-01-15T21:45:00.399Z,19.67
2018-01-15T21:47:28.076Z,17.90
2018-01-15T21:49:55.821Z,17.30
2018-01-15T21:52:23.688Z,18.92
2018-01-15T21:54:51.654Z,20.37
2018-01-15T21:57:19.417Z,19.23
2018-01-15T21:59:47.115Z,19.70
2018-01-15T22:02:14.840Z,19.60
2018-01-15T22:04:42.497Z,23.20
2018-01-15T22:07:10.120Z,16.35
2018-01-15T22:09:37.924Z,20.17
2018-01-15T22:12:05.688Z,18.52
2018-01-15T22:14:33.368Z,20.37
2018-01-15T22:17:01.931Z,21.50
2018-01-15T22:19:29.693Z,18.70
2018-01-15T22:21:57.372Z,18.52
2018-01-15T22:24:25.221Z,16.65
2018-01-15T22:26:52.983Z,20.15
2018-01-15T22:29:20.659Z,16.12
2018-01-15T22:31:48.424Z,18.40
2018-01-15T22:34:16.168Z,18.17
2018-01-15T22:36:43.933Z,19.30
2018-01-15T22:39:11.797Z,15.35
2018-01-15T22:41:39.661Z,14.10
2018-01-15T22:44:07.340Z,14.55
2018-01-15T22:46:35.086Z,16.05
2018-01-15T22:49:02.951Z,14.87
2018-01-15T22:51:30.628Z,15.48
2018-01-15T22:53:58.292Z,14.95
2018-01-15T22:56:26.137Z,11.05
2018-01-15T22:58:53.900Z,13.68
2018-01-15T23:01:21.663Z,14.75
2018-01-15T23:03:49.353Z,12.73
2018-01-15T23:06:17.189Z,13.20
2018-01-15T23:08:44.951Z,14.55
2018-01-15T23:11:12.716Z,14.00
2018-01-15T23:13:40.580Z,13.23
2018-01-15T23:16:08.342Z,10.00
2018-01-15T23:18:36.105Z,12.15
2018-01-15T23:21:03.788Z,11.25
2018-01-15T23:23:31.528Z,11.80
2018-01-15T23:25:59.308Z,11.52
2018-01-15T23:28:27.055Z,9.98
